createdAt,value
2023-01-23T00:14:06.153Z,974.59
2023-01-23T00:29:08.637Z,974.78
2023-01-23T00:44:10.955Z,974.95
2023-01-23T00:59:13.261Z,975.28
2023-01-23T01:14:15.500Z,975.39
2023-01-23T01:29:17.704Z,975.61
2023-01-23T01:44:19.935Z,975.62
2023-01-23T01:59:22.226Z,975.76
2023-01-23T02:14:24.613Z,976.07
2023-01-23T02:29:26.851Z,976.28
2023-01-23T02:44:29.090Z,976.35
2023-01-23T02:59:31.307Z,976.43
2023-01-23T03:14:33.498Z,976.5
2023-01-23T03:29:35.795Z,976.65
2023-01-23T03:44:38.196Z,976.56
2023-01-23T03:59:40.680Z,976.48
2023-01-23T04:14:43.549Z,976.64
2023-01-23T04:29:45.877Z,976.82
2023-01-23T04:44:48.084Z,977.16
2023-01-23T04:59:50.699Z,977.15
2023-01-23T05:14:53.122Z,977.22
2023-01-23T05:29:55.545Z,977.49
2023-01-23T05:44:57.759Z,977.9
2023-01-23T06:00:00.036Z,977.98
2023-01-23T06:15:02.289Z,977.98
2023-01-23T06:30:04.570Z,977.68
2023-01-23T06:45:06.981Z,977.85
2023-01-23T07:00:09.297Z,978.25
2023-01-23T07:15:11.548Z,978.06
2023-01-23T07:30:13.786Z,978.09
2023-01-23T07:45:16.149Z,978.2
2023-01-23T08:00:18.832Z,978.08
2023-01-23T08:15:21.267Z,978.03
2023-01-23T08:30:23.646Z,978.08
2023-01-23T08:45:26.112Z,978.31
2023-01-23T09:00:28.376Z,978.17
2023-01-23T09:15:30.606Z,978.01
2023-01-23T09:30:32.984Z,977.91
2023-01-23T09:45:35.382Z,977.9
2023-01-23T10:00:37.614Z,977.83
2023-01-23T10:15:39.882Z,977.61
2023-01-23T10:30:42.281Z,977.54
2023-01-23T10:45:44.649Z,977.48
2023-01-23T11:00:46.880Z,977.57
2023-01-23T11:15:49.124Z,977.69
2023-01-23T11:31:00.908Z,977.6
2023-01-23T11:46:14.291Z,977.47
2023-01-23T12:01:16.685Z,977.14
2023-01-23T12:16:18.905Z,976.96
2023-01-23T12:31:21.302Z,976.67
2023-01-23T12:46:23.657Z,976.6
2023-01-23T13:01:25.995Z,976.56
2023-01-23T13:16:28.517Z,976.6
2023-01-23T13:31:30.943Z,976.47
2023-01-23T13:46:33.543Z,976.45
2023-01-23T14:33:52.546Z,976.7
2023-01-23T14:48:56.667Z,976.76
2023-01-23T15:03:59.014Z,975.99
2023-01-23T15:19:01.242Z,976.52
2023-01-23T15:34:03.480Z,977.13
2023-01-23T15:49:10.795Z,977.08
2023-01-23T16:04:19.136Z,977.06
2023-01-23T16:19:21.531Z,977.28
2023-01-23T16:34:23.797Z,977.31
2023-01-23T16:49:26.038Z,977.24
2023-01-23T17:04:28.259Z,976.94
2023-01-23T17:19:30.501Z,977.37
2023-01-23T17:34:36.041Z,977.31
2023-01-23T17:49:43.815Z,977.18
2023-01-23T18:04:46.097Z,976.61
2023-01-23T18:19:48.439Z,976.44
2023-01-23T18:34:50.671Z,976.33
2023-01-23T18:49:53.158Z,976.03
2023-01-23T19:04:55.491Z,975.94
2023-01-23T19:19:57.771Z,976.01
2023-01-23T19:35:13.130Z,975.71
2023-01-23T19:50:16.295Z,975.63
2023-01-23T20:05:19.189Z,975.48
2023-01-23T20:20:21.768Z,975.36
2023-01-23T20:35:24.235Z,975.19
2023-01-23T20:50:26.499Z,975.29
2023-01-23T21:05:28.722Z,975.35
2023-01-23T21:20:31.039Z,975.67
2023-01-23T21:35:33.356Z,975.8
2023-01-23T21:50:35.598Z,975.75
2023-01-23T22:05:37.831Z,975.73
2023-01-23T22:20:40.392Z,975.79
2023-01-23T22:35:42.723Z,975.9
2023-01-23T22:50:44.910Z,975.98
2023-01-23T23:05:47.181Z,976.03
2023-01-23T23:20:49.632Z,976.17
2023-01-23T23:35:51.889Z,976.35
2023-01-23T23:50:54.103Z,976.35
